Time;durP1;ratioP1;P1;durP2;ratioP2;P2;SDS_P1;SDS_P2;PMS_P1;PMS_P2;Temp;Humidity;BMP_temperature;BMP_pressure;BME280_temperature;BME280_humidity;BME280_pressure;Samples;Min_cycle;Max_cycle;Signal;HPM_P1;HPM_P2
2022/05/14 00:00:21;;;;;;;19.02;7.17;;;;;;;17.87;80.60;100820.42;1674960;84;27275;-59
2022/05/14 00:02:51;;;;;;;12.43;4.55;;;;;;;17.89;80.62;100817.01;1711950;83;25773;-59
2022/05/14 00:05:21;;;;;;;12.68;4.42;;;;;;;17.91;80.40;100801.34;1681781;85;25510;-59
2022/05/14 00:07:50;;;;;;;14.05;4.42;;;;;;;17.76;80.30;100801.30;1681785;85;26213;-59
2022/05/14 00:10:20;;;;;;;16.35;5.60;;;;;;;17.64;79.95;100800.03;1681694;85;25749;-59
2022/05/14 00:13:05;;;;;;;14.28;5.10;;;;;;;17.60;80.34;100799.55;1681801;85;27409;-59
2022/05/14 00:15:37;;;;;;;18.67;5.10;;;;;;;17.64;80.50;100798.67;1681402;85;25735;-59
2022/05/14 00:18:07;;;;;;;12.37;4.67;;;;;;;17.63;80.31;100792.40;1676250;85;25662;-59
2022/05/14 00:20:36;;;;;;;10.65;4.60;;;;;;;17.64;80.37;100789.15;1686239;85;26106;-59
2022/05/14 00:23:05;;;;;;;8.95;4.55;;;;;;;17.67;80.48;100796.43;1717240;83;25756;-59
2022/05/14 00:25:35;;;;;;;13.55;5.85;;;;;;;17.74;80.60;100794.36;1717031;83;56010;-60
2022/05/14 00:28:04;;;;;;;8.65;4.58;;;;;;;17.76;80.29;100796.36;1716632;83;25814;-59
2022/05/14 00:30:32;;;;;;;12.13;5.50;;;;;;;17.70;79.60;100795.74;1711336;83;25718;-59
2022/05/14 00:32:59;;;;;;;10.00;5.28;;;;;;;17.64;79.50;100789.15;1701258;82;26035;-59
2022/05/14 00:35:27;;;;;;;14.30;5.17;;;;;;;17.58;79.53;100789.36;1698032;84;25778;-59
2022/05/14 00:37:54;;;;;;;10.85;5.37;;;;;;;17.52;79.82;100790.97;1697990;84;27544;-59
2022/05/14 00:40:32;;;;;;;13.28;5.03;;;;;;;17.49;80.42;100792.67;1697772;83;25801;-60
2022/05/14 00:42:59;;;;;;;11.75;4.12;;;;;;;17.51;80.27;100792.48;1742171;81;25588;-60
2022/05/14 00:45:28;;;;;;;10.68;4.67;;;;;;;17.46;80.57;100789.48;1750962;81;26167;-59
2022/05/14 00:47:59;;;;;;;9.50;5.12;;;;;;;17.44;80.63;100784.20;1684872;83;25809;-59
2022/05/14 00:50:46;;;;;;;11.10;5.03;;;;;;;17.43;80.67;100778.45;1702685;84;27369;-59
2022/05/14 00:53:36;;;;;;;10.82;5.17;;;;;;;17.43;80.53;100783.89;1702357;83;25955;-59
2022/05/14 00:56:08;;;;;;;18.52;5.40;;;;;;;17.45;80.68;100779.62;1710792;83;25721;-59
2022/05/14 00:58:55;;;;;;;10.55;5.22;;;;;;;17.43;80.61;100781.17;1725311;83;26117;-59
2022/05/14 01:01:22;;;;;;;9.03;5.58;;;;;;;17.46;80.61;100779.43;1743168;82;25656;-59
2022/05/14 01:03:49;;;;;;;10.68;4.97;;;;;;;17.47;80.40;100786.56;1745623;82;27558;-59
2022/05/14 01:06:19;;;;;;;12.45;6.08;;;;;;;17.49;80.29;100779.08;1745796;82;25921;-59
2022/05/14 01:08:48;;;;;;;9.78;5.08;;;;;;;17.51;80.28;100772.95;1745528;82;25700;-59
2022/05/14 01:11:17;;;;;;;13.72;5.35;;;;;;;17.52;80.02;100776.50;1738873;82;26595;-59
2022/05/14 01:13:45;;;;;;;11.15;4.65;;;;;;;17.51;79.87;100766.64;1745788;82;25782;-59
2022/05/14 01:16:11;;;;;;;10.60;4.85;;;;;;;17.46;79.94;100773.16;1746129;82;28471;-59
2022/05/14 01:18:38;;;;;;;7.75;4.83;;;;;;;17.40;79.64;100772.50;1745724;82;25709;-59
2022/05/14 01:21:41;;;;;;;11.85;5.05;;;;;;;17.31;80.40;100777.17;1745669;82;25744;-59
2022/05/14 01:27:09;;;;;;;13.58;5.67;;;;;;;17.00;80.92;100783.46;1745957;82;25868;-59
2022/05/14 01:29:38;;;;;;;14.58;5.62;;;;;;;16.79;81.33;100786.27;1745402;81;27482;-59
2022/05/14 01:32:08;;;;;;;14.13;5.90;;;;;;;16.70;81.99;100788.16;1743705;82;25646;-59
2022/05/14 01:34:36;;;;;;;16.82;6.03;;;;;;;16.61;82.27;100787.02;1738061;82;25708;-59
2022/05/14 01:37:04;;;;;;;9.68;5.55;;;;;;;16.55;82.83;100795.36;1737909;81;26078;-59
2022/05/14 01:39:31;;;;;;;21.15;6.12;;;;;;;16.50;83.17;100798.59;1738287;82;25687;-59
2022/05/14 01:41:58;;;;;;;16.65;5.70;;;;;;;16.54;84.52;100795.85;1725724;82;27525;-59
2022/05/14 01:44:25;;;;;;;23.60;6.85;;;;;;;16.52;83.98;100801.99;1708332;84;25725;-59
2022/05/14 01:46:53;;;;;;;8.63;5.50;;;;;;;16.52;83.51;100795.70;1727173;82;25742;-59
2022/05/14 01:49:20;;;;;;;8.63;6.05;;;;;;;16.55;83.58;100802.98;1737885;82;26758;-59
2022/05/14 01:51:48;;;;;;;9.45;6.28;;;;;;;16.61;83.73;100804.68;1738104;82;25677;-59
2022/05/14 01:54:15;;;;;;;8.80;5.62;;;;;;;16.71;83.76;100799.89;1738099;82;27289;-59
2022/05/14 01:56:42;;;;;;;13.55;5.47;;;;;;;16.82;83.59;100802.20;1737680;82;26214;-59
2022/05/14 01:59:09;;;;;;;10.50;5.22;;;;;;;16.90;83.37;100806.23;1711210;82;25793;-60
2022/05/14 02:01:37;;;;;;;10.90;5.80;;;;;;;16.99;82.97;100804.86;1697822;83;26105;-59
2022/05/14 02:04:08;;;;;;;7.17;5.40;;;;;;;17.04;82.81;100803.84;1698102;83;25925;-59
2022/05/14 02:06:37;;;;;;;10.05;5.15;;;;;;;17.10;82.55;100811.27;1697949;83;27483;-59
2022/05/14 02:09:11;;;;;;;11.93;4.97;;;;;;;17.15;82.31;100808.88;1698102;84;25759;-59
2022/05/14 02:11:40;;;;;;;8.03;5.12;;;;;;;17.14;81.81;100815.33;1697827;84;25761;-59
2022/05/14 02:14:24;;;;;;;7.37;5.10;;;;;;;17.14;81.46;100809.90;1698190;83;26180;-59
2022/05/14 02:16:51;;;;;;;8.18;5.20;;;;;;;17.11;81.18;100810.25;1697974;83;25790;-59
2022/05/14 02:19:18;;;;;;;14.40;4.97;;;;;;;17.09;80.90;100815.00;1698139;83;27666;-59
2022/05/14 02:21:45;;;;;;;17.30;5.72;;;;;;;17.09;81.04;100810.92;1697848;84;26300;-59
2022/05/14 02:24:13;;;;;;;8.48;5.42;;;;;;;17.09;80.79;100809.57;1697942;83;25755;-59
2022/05/14 02:26:42;;;;;;;10.68;5.12;;;;;;;17.10;80.79;100813.16;1698003;84;26162;-59
2022/05/14 02:29:09;;;;;;;8.48;4.90;;;;;;;17.11;80.83;100819.76;1698228;84;25732;-59
2022/05/14 02:31:37;;;;;;;6.58;4.37;;;;;;;17.10;80.61;100824.86;1712670;81;27487;-59
2022/05/14 02:34:03;;;;;;;10.08;4.55;;;;;;;17.11;80.37;100827.91;1716635;83;26560;-59
2022/05/14 02:36:30;;;;;;;9.93;5.12;;;;;;;17.11;80.20;100841.50;1716787;83;25783;-59
2022/05/14 02:38:57;;;;;;;15.08;5.42;;;;;;;17.07;79.94;100837.46;1716533;83;26718;-59
2022/05/14 02:41:24;;;;;;;11.05;4.35;;;;;;;17.03;79.69;100828.78;1716976;83;25852;-60
2022/05/14 02:43:53;;;;;;;6.80;4.87;;;;;;;17.02;79.77;100831.70;1718132;83;27533;-59
2022/05/14 02:46:21;;;;;;;6.53;5.05;;;;;;;17.03;79.74;100841.55;1729840;82;25684;-59
2022/05/14 02:48:48;;;;;;;7.37;4.45;;;;;;;17.01;79.65;100848.52;1746218;82;25813;-59
2022/05/14 02:51:17;;;;;;;8.15;5.00;;;;;;;17.00;79.34;100841.89;1777694;80;26109;-59
2022/05/14 02:53:44;;;;;;;5.92;4.40;;;;;;;16.97;79.22;100852.61;1777957;80;25766;-59
2022/05/14 02:56:10;;;;;;;9.20;4.85;;;;;;;16.96;79.08;100859.58;1777739;80;27488;-59
2022/05/14 03:01:23;;;;;;;12.98;6.70;;;;;;;16.82;78.34;100855.70;1747600;80;25645;-59
2022/05/14 03:03:50;;;;;;;14.38;6.15;;;;;;;16.70;78.29;100858.78;1743783;82;26801;-59
2022/05/14 03:06:17;;;;;;;11.10;4.80;;;;;;;16.63;78.94;100852.89;1743500;82;25618;-59
2022/05/14 03:08:44;;;;;;;9.60;4.08;;;;;;;16.61;79.26;100854.39;1743701;82;28431;-59
2022/05/14 03:11:11;;;;;;;9.43;4.85;;;;;;;16.62;79.36;100856.09;1743438;82;25697;-59
2022/05/14 03:13:38;;;;;;;15.72;4.50;;;;;;;16.66;79.58;100855.23;1743721;81;25677;-59
2022/05/14 03:16:05;;;;;;;8.20;4.37;;;;;;;16.64;79.30;100855.91;1745084;81;26285;-59
2022/05/14 03:18:33;;;;;;;16.45;5.25;;;;;;;16.54;79.24;100865.09;1743514;82;25816;-59
2022/05/14 03:21:00;;;;;;;7.58;4.40;;;;;;;16.49;79.67;100859.36;1743362;82;28173;-59
2022/05/14 03:23:27;;;;;;;9.03;4.53;;;;;;;16.55;80.17;100865.97;1743329;82;25767;-59
2022/05/14 03:25:54;;;;;;;10.38;5.20;;;;;;;16.61;80.09;100873.94;1743355;82;25860;-59
2022/05/14 03:28:21;;;;;;;9.43;4.10;;;;;;;16.68;79.98;100880.36;1743491;82;26102;-59
2022/05/14 03:30:48;;;;;;;8.35;4.10;;;;;;;16.64;79.67;100885.30;1740923;82;25669;-59
2022/05/14 03:33:15;;;;;;;6.95;4.72;;;;;;;16.65;79.89;100891.06;1716668;82;27558;-59
2022/05/14 03:35:42;;;;;;;13.03;5.12;;;;;;;16.68;80.01;100890.70;1710110;83;25790;-59
2022/05/14 03:38:10;;;;;;;9.25;4.72;;;;;;;16.74;80.03;100892.74;1710306;83;25677;-59
2022/05/14 03:40:37;;;;;;;12.25;5.15;;;;;;;16.78;79.90;100897.81;1710334;83;26146;-59
2022/05/14 03:43:04;;;;;;;18.20;5.47;;;;;;;16.78;79.77;100895.95;1741555;82;25448;-59
2022/05/14 03:45:31;;;;;;;7.37;4.30;;;;;;;16.80;79.86;100902.56;1747842;80;27472;-59
2022/05/14 03:47:58;;;;;;;9.83;4.85;;;;;;;16.73;79.68;100903.77;1775054;80;25628;-59
2022/05/14 03:50:25;;;;;;;9.03;3.90;;;;;;;16.72;80.08;100902.06;1774929;80;25681;-60
2022/05/14 03:52:52;;;;;;;7.28;3.98;;;;;;;16.71;79.90;100908.55;1774922;80;26091;-59
2022/05/14 03:55:19;;;;;;;5.42;3.45;;;;;;;16.68;80.00;100910.23;1774905;80;25744;-59
2022/05/14 03:57:45;;;;;;;9.03;4.40;;;;;;;16.60;80.01;100912.45;1774900;80;27470;-59
2022/05/14 04:00:14;;;;;;;8.75;4.47;;;;;;;16.52;80.12;100909.26;1759184;80;25473;-59
2022/05/14 04:02:43;;;;;;;6.45;3.80;;;;;;;16.50;80.33;100915.85;1735198;82;25469;-59
2022/05/14 04:05:11;;;;;;;9.23;3.75;;;;;;;16.46;80.33;100914.52;1735130;82;26281;-59
2022/05/14 04:07:38;;;;;;;8.98;4.58;;;;;;;16.45;81.21;100911.46;1735326;82;25852;-59
2022/05/14 04:10:08;;;;;;;11.48;4.65;;;;;;;16.43;80.88;100915.19;1735036;82;27489;-60
2022/05/14 04:12:35;;;;;;;9.35;4.00;;;;;;;16.46;81.27;100924.02;1735211;82;25753;-59
2022/05/14 04:15:03;;;;;;;10.75;3.80;;;;;;;16.47;81.58;100932.52;1735452;82;25793;-59
2022/05/14 04:17:31;;;;;;;5.00;3.80;;;;;;;16.41;80.89;100923.17;1736869;82;26087;-60
2022/05/14 04:19:58;;;;;;;6.85;4.15;;;;;;;16.39;81.40;100930.64;1735246;82;25783;-59
2022/05/14 04:22:26;;;;;;;11.93;4.40;;;;;;;16.38;81.32;100927.09;1735163;82;27656;-59
2022/05/14 04:24:53;;;;;;;8.00;3.62;;;;;;;16.42;81.37;100930.30;1735079;82;25484;-59
2022/05/14 04:27:20;;;;;;;14.93;5.87;;;;;;;16.42;81.09;100937.09;1735093;82;25784;-59
2022/05/14 04:29:47;;;;;;;11.57;3.90;;;;;;;16.43;80.94;100936.08;1735148;82;26156;-59
2022/05/14 04:32:14;;;;;;;9.10;3.65;;;;;;;16.48;81.22;100940.47;1733723;82;25836;-59
2022/05/14 04:34:42;;;;;;;6.90;3.67;;;;;;;16.53;80.98;100937.24;1733165;82;27546;-59
2022/05/14 04:37:10;;;;;;;13.22;5.12;;;;;;;16.60;80.95;100946.39;1732871;82;26211;-60
2022/05/14 04:39:39;;;;;;;11.60;4.45;;;;;;;16.58;81.09;100946.58;1732750;81;25539;-59
2022/05/14 04:42:09;;;;;;;14.40;4.30;;;;;;;16.62;81.23;100944.89;1732955;82;26812;-59
2022/05/14 04:44:38;;;;;;;12.30;4.53;;;;;;;16.65;81.57;100944.52;1732453;82;25763;-59
2022/05/14 04:47:06;;;;;;;11.95;4.40;;;;;;;16.68;81.28;100945.55;1732944;80;27441;-59
2022/05/14 04:49:40;;;;;;;9.73;4.35;;;;;;;16.71;81.56;100944.69;1734233;82;25492;-59
2022/05/14 04:52:08;;;;;;;11.18;4.30;;;;;;;16.75;81.26;100946.55;1732973;82;25859;-59
2022/05/14 04:54:36;;;;;;;16.67;4.70;;;;;;;16.76;80.87;100944.17;1733001;82;26073;-59
2022/05/14 04:57:05;;;;;;;13.88;4.30;;;;;;;16.76;80.74;100952.84;1733270;82;25841;-59
2022/05/14 04:59:33;;;;;;;8.05;4.72;;;;;;;16.73;80.87;100956.73;1733294;81;27460;-59
2022/05/14 05:04:48;;;;;;;18.30;5.08;;;;;;;16.89;80.64;100955.37;1735459;82;25749;-59
2022/05/14 05:07:15;;;;;;;12.40;4.28;;;;;;;16.98;80.36;100960.81;1738968;80;28219;-59
2022/05/14 05:09:44;;;;;;;8.45;3.67;;;;;;;17.01;79.22;100955.87;1741507;81;25924;-59
2022/05/14 05:12:11;;;;;;;7.03;4.12;;;;;;;17.00;78.45;100951.95;1741588;82;27660;-59
2022/05/14 05:14:38;;;;;;;12.33;4.20;;;;;;;16.96;77.80;100957.41;1741295;82;25750;-59
2022/05/14 05:17:05;;;;;;;6.55;3.27;;;;;;;17.02;78.16;100956.70;1741537;82;25699;-59
2022/05/14 05:19:32;;;;;;;5.15;3.20;;;;;;;17.05;77.47;100961.80;1741250;82;26305;-59
2022/05/14 05:21:59;;;;;;;9.75;3.40;;;;;;;17.14;77.50;100965.33;1741568;82;25715;-59
2022/05/14 05:24:26;;;;;;;7.12;3.50;;;;;;;17.15;76.39;100968.39;1741442;82;28146;-59
2022/05/14 05:26:53;;;;;;;8.20;3.40;;;;;;;17.15;76.07;100965.17;1741341;82;25997;-59
2022/05/14 05:29:19;;;;;;;8.25;4.35;;;;;;;17.19;75.71;100967.86;1741798;82;25674;-59
2022/05/14 05:31:46;;;;;;;13.18;3.75;;;;;;;17.19;74.96;100970.58;1744249;80;27044;-59
2022/05/14 05:34:14;;;;;;;9.08;3.05;;;;;;;17.21;74.92;100973.15;1763275;81;25772;-59
2022/05/14 05:36:41;;;;;;;7.78;3.08;;;;;;;17.29;75.20;100974.97;1759396;81;27250;-59
2022/05/14 05:39:08;;;;;;;13.22;3.60;;;;;;;17.28;74.27;100974.62;1763106;80;25777;-59
2022/05/14 05:41:35;;;;;;;8.18;3.35;;;;;;;17.26;73.72;100969.37;1756007;81;25841;-59
2022/05/14 05:44:02;;;;;;;6.22;3.02;;;;;;;17.28;73.72;100973.27;1753989;81;28232;-59
2022/05/14 05:46:34;;;;;;;4.17;2.90;;;;;;;17.30;73.70;100980.75;1747217;80;25540;-60
2022/05/14 05:49:01;;;;;;;5.75;3.65;;;;;;;17.33;74.16;100981.23;1738488;80;27092;-59
2022/05/14 05:51:28;;;;;;;7.00;3.30;;;;;;;17.35;73.18;100976.97;1734783;82;25677;-59
2022/05/14 05:56:46;;;;;;;6.65;4.45;;;;;;;17.39;72.27;100976.97;1734256;82;26116;-59
2022/05/14 05:59:12;;;;;;;11.78;5.42;;;;;;;17.42;71.57;100980.71;1732460;80;25816;-59
2022/05/14 06:01:38;;;;;;;12.73;3.87;;;;;;;17.46;71.53;100983.39;1735111;82;27746;-59
2022/05/14 06:04:06;;;;;;;14.18;4.10;;;;;;;17.58;71.88;100992.53;1738572;81;25919;-59
2022/05/14 06:06:33;;;;;;;11.68;4.12;;;;;;;17.53;70.41;100988.45;1734629;82;25819;-59
2022/05/14 06:09:02;;;;;;;8.48;3.77;;;;;;;17.56;71.06;100994.08;1734063;82;27092;-60
2022/05/14 06:11:31;;;;;;;10.05;3.72;;;;;;;17.55;70.59;100986.08;1730205;82;26598;-59
2022/05/14 06:13:58;;;;;;;4.95;3.60;;;;;;;17.62;71.10;100990.64;1735572;82;27510;-60
2022/05/14 06:16:26;;;;;;;9.18;3.12;;;;;;;17.70;70.34;100988.90;1737738;81;25681;-59
2022/05/14 06:18:53;;;;;;;6.33;3.47;;;;;;;17.72;70.25;100984.97;1737300;81;25705;-59
2022/05/14 06:21:20;;;;;;;6.42;2.83;;;;;;;17.76;69.94;100989.05;1737351;82;26072;-59
2022/05/14 06:23:47;;;;;;;11.20;3.50;;;;;;;17.82;69.98;100986.96;1737460;81;25515;-59
2022/05/14 06:26:14;;;;;;;6.15;3.02;;;;;;;17.89;70.16;100990.31;1737791;82;27685;-59
2022/05/14 06:28:42;;;;;;;5.50;3.00;;;;;;;17.98;70.23;100989.27;1734860;82;26475;-59
2022/05/14 06:31:09;;;;;;;9.93;2.95;;;;;;;18.07;69.98;100994.16;1725098;82;25793;-60
2022/05/14 06:33:37;;;;;;;5.00;3.00;;;;;;;18.12;68.46;100996.69;1739920;82;26091;-59
2022/05/14 06:36:05;;;;;;;4.92;2.85;;;;;;;18.13;67.52;100997.52;1738971;82;27279;-59
2022/05/14 06:38:33;;;;;;;6.90;2.80;;;;;;;18.14;67.18;101004.66;1738343;82;27469;-59
2022/05/14 06:41:07;;;;;;;9.53;2.75;;;;;;;18.21;67.07;100997.98;1739567;82;25542;-59
2022/05/14 06:43:34;;;;;;;7.67;3.15;;;;;;;18.25;65.62;100997.44;1737662;82;25527;-59
2022/05/14 06:46:01;;;;;;;7.03;2.67;;;;;;;18.37;65.45;100994.30;1738546;81;26112;-59
2022/05/14 06:48:28;;;;;;;6.47;3.20;;;;;;;18.43;64.61;100997.64;1739310;82;26070;-60
2022/05/14 06:51:12;;;;;;;5.83;2.50;;;;;;;18.54;65.37;101004.53;1738452;81;27635;-60
2022/05/14 06:53:40;;;;;;;;;;;;;;;18.50;62.96;101005.41;1737840;82;25732;-59
2022/05/14 06:56:09;;;;;;;6.90;2.62;;;;;;;18.44;62.13;100999.34;1735643;82;25776;-60
2022/05/14 06:58:40;;;;;;;5.87;2.92;;;;;;;18.46;63.29;101004.94;1735585;82;26566;-60
2022/05/14 07:01:08;;;;;;;8.85;2.90;;;;;;;18.61;63.29;101001.39;1737192;82;25954;-60
2022/05/14 07:06:40;;;;;;;11.43;2.62;;;;;;;18.75;62.38;101001.97;1737567;82;25720;-60
2022/05/14 07:09:12;;;;;;;6.42;2.45;;;;;;;18.80;61.56;101002.77;1737450;82;25707;-60
2022/05/14 07:11:42;;;;;;;4.30;2.25;;;;;;;18.87;60.55;101009.17;1737333;82;25770;-60
2022/05/14 07:14:12;;;;;;;15.10;2.83;;;;;;;18.91;61.16;101006.92;1715103;82;25795;-60
2022/05/14 07:16:40;;;;;;;10.15;2.33;;;;;;;19.08;60.96;101007.11;1737444;82;27491;-60
2022/05/14 07:19:08;;;;;;;7.78;2.15;;;;;;;19.20;61.18;101013.48;1737867;82;25836;-59
2022/05/14 07:21:38;;;;;;;4.95;1.70;;;;;;;19.30;60.29;101009.09;1737836;82;25801;-59
2022/05/14 07:24:08;;;;;;;6.67;2.00;;;;;;;19.31;58.48;101022.56;1737655;82;26643;-59
2022/05/14 07:26:37;;;;;;;3.77;2.15;;;;;;;19.22;57.52;101026.41;1735673;82;25792;-59
2022/05/14 07:29:18;;;;;;;6.00;1.87;;;;;;;19.18;57.69;101022.35;1739209;82;28231;-60
2022/05/14 07:31:45;;;;;;;7.60;2.15;;;;;;;19.23;57.40;101011.22;1736861;81;25986;-60
2022/05/14 07:34:14;;;;;;;3.45;1.82;;;;;;;19.38;58.30;101024.86;1739755;81;25723;-59
2022/05/14 07:36:52;;;;;;;10.03;2.42;;;;;;;19.51;57.41;101032.88;1758015;81;25930;-59
2022/05/14 07:39:22;;;;;;;6.12;2.37;;;;;;;19.65;57.48;101028.45;1759855;81;25809;-59
2022/05/14 07:41:54;;;;;;;7.35;2.08;;;;;;;19.75;57.61;101026.80;1733575;81;27089;-59
2022/05/14 07:44:26;;;;;;;5.15;2.45;;;;;;;19.77;56.85;101032.89;1713944;82;26215;-60
2022/05/14 07:46:54;;;;;;;6.40;2.10;;;;;;;19.83;57.49;101027.52;1726029;82;25871;-60
2022/05/14 07:49:23;;;;;;;5.90;2.52;;;;;;;19.90;57.30;101035.83;1732970;81;26109;-59
2022/05/14 07:51:54;;;;;;;9.33;2.62;;;;;;;19.98;57.32;101032.98;1732589;82;25845;-59
2022/05/14 07:54:23;;;;;;;8.83;2.02;;;;;;;20.04;57.52;101030.55;1732772;82;27584;-59
2022/05/14 07:56:50;;;;;;;10.55;2.27;;;;;;;20.06;56.60;101042.96;1744041;81;25946;-59
2022/05/14 07:59:17;;;;;;;7.37;2.20;;;;;;;20.14;56.91;101041.47;1749821;81;25707;-60
2022/05/14 08:01:43;;;;;;;5.70;2.62;;;;;;;20.22;56.77;101039.12;1735136;82;26124;-59
2022/05/14 08:04:12;;;;;;;6.65;2.30;;;;;;;20.32;56.55;101042.39;1735153;82;25795;-59
2022/05/14 08:06:39;;;;;;;6.08;2.00;;;;;;;20.42;55.90;101034.39;1734949;82;27534;-59
2022/05/14 08:09:06;;;;;;;9.05;2.75;;;;;;;20.52;55.11;101039.55;1734986;82;25912;-60
2022/05/14 08:11:34;;;;;;;6.85;1.87;;;;;;;20.60;56.03;101038.88;1735062;82;25739;-60
2022/05/14 08:14:01;;;;;;;3.87;1.98;;;;;;;20.67;54.80;101035.34;1735290;82;26108;-60
2022/05/14 08:16:28;;;;;;;6.80;1.75;;;;;;;20.76;54.12;101035.06;1735252;82;25728;-60
2022/05/14 08:18:56;;;;;;;11.85;2.00;;;;;;;20.80;53.70;101041.81;1735474;82;27497;-60
2022/05/14 08:26:53;;;;;;;10.15;2.50;;;;;;;20.90;53.06;101049.69;1735127;82;26124;-59
2022/05/14 08:29:22;;;;;;;5.50;1.75;;;;;;;21.02;51.64;101047.78;1735090;82;27326;-59
2022/05/14 08:31:50;;;;;;;14.18;1.82;;;;;;;21.07;50.63;101049.39;1734940;82;28447;-59
2022/05/14 08:34:18;;;;;;;6.55;1.50;;;;;;;21.16;51.12;101050.93;1734984;82;25716;-59
2022/05/14 08:36:45;;;;;;;6.00;1.70;;;;;;;21.31;49.74;101049.45;1735256;82;25499;-60
2022/05/14 08:39:13;;;;;;;5.70;1.85;;;;;;;21.43;48.61;101043.72;1735074;82;28370;-60
2022/05/14 08:41:44;;;;;;;5.15;1.87;;;;;;;21.48;49.56;101049.12;1737918;82;25775;-60
2022/05/14 08:44:25;;;;;;;13.95;1.90;;;;;;;21.58;48.99;101066.89;1743659;82;27476;-60
2022/05/14 08:46:57;;;;;;;8.08;2.30;;;;;;;21.70;48.28;101066.33;1738368;82;25695;-59
2022/05/14 08:49:35;;;;;;;7.83;2.00;;;;;;;21.76;47.73;101059.20;1735199;82;26601;-59
2022/05/14 08:52:08;;;;;;;12.00;3.60;;;;;;;21.81;46.79;101042.98;1735240;82;26282;-59
2022/05/14 08:54:35;;;;;;;9.18;1.77;;;;;;;21.91;46.73;101041.26;1734787;81;26118;-60
2022/05/14 08:57:11;;;;;;;6.05;1.80;;;;;;;22.04;47.47;101045.40;1735149;82;27646;-60
2022/05/14 08:59:49;;;;;;;5.25;1.67;;;;;;;22.18;46.16;101049.02;1734510;82;25983;-59
2022/05/14 09:02:24;;;;;;;4.53;1.60;;;;;;;22.25;46.13;101043.56;1732912;82;25539;-60
2022/05/14 09:05:15;;;;;;;15.55;2.27;;;;;;;22.42;46.39;101042.16;1720691;82;26105;-60
2022/05/14 09:07:43;;;;;;;8.23;1.55;;;;;;;22.63;45.93;101041.66;1733220;82;25768;-59
2022/05/14 09:10:30;;;;;;;7.00;2.60;;;;;;;22.79;44.91;101050.84;1732835;82;28220;-59
2022/05/14 09:13:02;;;;;;;7.55;1.60;;;;;;;23.05;44.05;101051.88;1732714;82;25498;-59
2022/05/14 09:15:32;;;;;;;9.30;2.10;;;;;;;23.24;44.01;101048.81;1731800;80;25741;-60
2022/05/14 09:18:11;;;;;;;8.63;1.75;;;;;;;23.58;44.35;101050.11;1732797;81;26100;-59
2022/05/14 09:20:59;;;;;;;4.42;1.77;;;;;;;23.88;42.51;101041.34;1717852;82;25962;-59
2022/05/14 09:23:44;;;;;;;11.97;1.60;;;;;;;23.98;41.97;101047.76;1731781;82;27577;-59
2022/05/14 09:26:39;;;;;;;7.53;1.80;;;;;;;23.98;41.82;101044.47;1732547;81;25567;-59
2022/05/14 09:29:36;;;;;;;4.58;1.70;;;;;;;24.35;41.01;101051.56;1732788;81;25706;-59
2022/05/14 09:32:08;;;;;;;6.37;1.35;;;;;;;24.61;39.38;101052.98;1713068;82;26764;-59
2022/05/14 09:34:35;;;;;;;6.87;1.67;;;;;;;24.63;38.66;101047.56;1730443;82;25612;-59
2022/05/14 09:37:12;;;;;;;6.53;1.32;;;;;;;24.63;38.77;101049.48;1730706;82;27438;-59
2022/05/14 09:39:40;;;;;;;6.65;1.65;;;;;;;24.96;38.64;101047.00;1730647;82;26161;-59
2022/05/14 09:42:28;;;;;;;11.28;1.80;;;;;;;24.97;37.83;101052.27;1734148;82;25681;-59
2022/05/14 09:44:57;;;;;;;7.20;1.72;;;;;;;25.04;37.85;101051.39;1737993;82;25675;-59
2022/05/14 09:47:30;;;;;;;5.42;1.70;;;;;;;25.53;36.79;101044.67;1735755;80;25720;-59
2022/05/14 09:50:02;;;;;;;7.80;1.55;;;;;;;25.93;36.27;101047.77;1735367;82;32942;-59
2022/05/14 09:52:33;;;;;;;14.50;1.40;;;;;;;26.25;34.82;101046.19;1735776;82;25788;-59
2022/05/14 09:55:04;;;;;;;6.12;1.60;;;;;;;26.38;32.84;101042.94;1735325;82;25674;-59
2022/05/14 09:57:55;;;;;;;4.65;1.95;;;;;;;26.68;33.56;101038.75;1735666;82;26196;-59
2022/05/14 10:01:00;;;;;;;3.52;1.27;;;;;;;26.36;33.14;101032.12;1733205;82;25608;-59
2022/05/14 10:03:41;;;;;;;7.60;1.20;;;;;;;25.70;33.44;101046.25;1730717;82;27645;-59
2022/05/14 10:06:30;;;;;;;5.45;1.20;;;;;;;26.13;34.33;101043.94;1730543;82;25533;-59
2022/05/14 10:09:24;;;;;;;3.85;1.30;;;;;;;25.98;34.14;101055.34;1728588;81;25792;-60
2022/05/14 10:12:02;;;;;;;3.95;1.30;;;;;;;26.48;32.67;101047.87;1750012;81;27263;-60
2022/05/14 10:14:51;;;;;;;6.15;1.57;;;;;;;27.16;32.71;101035.49;1768366;81;26088;-60
2022/05/14 10:17:42;;;;;;;12.23;1.87;;;;;;;27.92;32.34;101022.75;1761833;81;27648;-59
2022/05/14 10:20:33;;;;;;;7.50;2.05;;;;;;;28.68;29.75;101033.54;1769993;81;25734;-59
2022/05/14 10:26:47;;;;;;;6.65;1.60;;;;;;;29.77;27.41;101017.11;1770148;81;26505;-59
2022/05/14 10:30:08;;;;;;;4.72;1.30;;;;;;;30.11;28.96;101026.13;1757930;80;25913;-59
2022/05/14 10:32:37;;;;;;;9.35;1.20;;;;;;;30.42;26.45;101018.08;1754505;80;27648;-60
2022/05/14 10:35:25;;;;;;;3.42;1.20;;;;;;;30.66;26.01;101033.58;1743111;82;25798;-60
2022/05/14 10:37:59;;;;;;;4.50;1.30;;;;;;;30.81;25.82;101032.86;1743136;82;25637;-61
2022/05/14 10:40:34;;;;;;;4.75;1.87;;;;;;;30.90;24.41;101034.05;1743359;81;26116;-60
2022/05/14 10:43:40;;;;;;;3.58;1.40;;;;;;;30.96;25.75;101035.74;1718995;82;25748;-60
2022/05/14 10:46:21;;;;;;;3.60;1.52;;;;;;;31.40;25.10;101027.70;1720198;81;27595;-60
2022/05/14 10:49:16;;;;;;;3.47;1.20;;;;;;;31.36;24.81;101038.53;1733187;81;25448;-59
2022/05/14 10:51:52;;;;;;;12.05;1.20;;;;;;;31.57;24.98;101041.95;1731660;82;25889;-60
2022/05/14 10:54:23;;;;;;;3.60;1.00;;;;;;;31.74;25.14;101032.05;1733080;82;26102;-60
2022/05/14 10:56:57;;;;;;;2.67;1.02;;;;;;;32.24;24.55;101029.14;1733325;81;25749;-60
2022/05/14 10:59:36;;;;;;;18.12;2.65;;;;;;;32.62;23.54;101013.02;1734394;81;27652;-60
2022/05/14 11:02:27;;;;;;;2.50;1.55;;;;;;;32.54;24.11;101005.76;1734472;82;25839;-60
2022/05/14 11:04:55;;;;;;;5.50;1.40;;;;;;;32.77;23.29;100996.00;1733669;82;25796;-60
2022/05/14 11:07:39;;;;;;;6.25;1.22;;;;;;;32.32;23.48;101005.47;1730103;82;26083;-60
2022/05/14 11:10:31;;;;;;;9.25;1.27;;;;;;;31.89;23.74;101008.45;1732971;82;25821;-60
2022/05/14 11:13:12;;;;;;;1.82;0.80;;;;;;;32.16;23.29;101012.95;1727833;81;27703;-60
2022/05/14 11:15:39;;;;;;;5.55;1.20;;;;;;;32.21;23.78;101015.73;1733325;81;25540;-60
2022/05/14 11:18:11;;;;;;;3.45;1.30;;;;;;;32.73;23.09;101020.80;1733127;82;25799;-60
2022/05/14 11:20:54;;;;;;;6.67;1.57;;;;;;;31.98;23.45;101024.03;1733316;82;34901;-60
2022/05/14 11:23:22;;;;;;;2.80;1.12;;;;;;;32.25;23.40;101013.26;1733051;81;25776;-60
2022/05/14 11:26:11;;;;;;;2.50;1.20;;;;;;;32.41;22.64;101012.72;1732982;81;27465;-60
2022/05/14 11:28:39;;;;;;;6.80;1.00;;;;;;;32.61;22.74;101013.27;1732836;81;26060;-59
2022/05/14 11:31:20;;;;;;;6.25;1.10;;;;;;;33.50;21.67;101000.84;1733219;82;25808;-59
2022/05/14 11:33:49;;;;;;;2.45;0.80;;;;;;;33.82;21.36;101007.38;1733574;82;26228;-59
2022/05/14 11:36:22;;;;;;;7.40;0.80;;;;;;;33.71;20.86;101004.36;1735153;82;25669;-60
2022/05/14 11:39:24;;;;;;;5.03;0.95;;;;;;;33.59;22.29;101003.31;1735109;82;28819;-60
2022/05/14 11:41:55;;;;;;;4.55;0.98;;;;;;;34.01;21.34;101003.95;1737975;82;25860;-60
2022/05/14 11:44:42;;;;;;;10.50;1.40;;;;;;;34.48;20.27;101001.11;1743579;82;25800;-60
2022/05/14 11:47:41;;;;;;;7.22;1.05;;;;;;;34.71;19.76;100999.23;1737249;82;28176;-60
2022/05/14 11:50:10;;;;;;;3.95;0.88;;;;;;;34.75;19.81;101004.48;1735178;82;25642;-60
2022/05/14 11:52:51;;;;;;;6.00;1.40;;;;;;;34.92;19.08;101004.08;1735186;82;27477;-60
2022/05/14 11:55:26;;;;;;;3.45;0.80;;;;;;;34.09;20.04;101001.12;1735166;82;25472;-60
2022/05/14 11:58:11;;;;;;;3.27;1.15;;;;;;;34.05;20.33;101000.02;1735502;82;25890;-60
2022/05/14 12:00:39;;;;;;;6.37;1.27;;;;;;;33.95;20.32;100993.37;1736493;81;26154;-60
2022/05/14 12:03:32;;;;;;;6.03;1.17;;;;;;;33.07;21.19;100996.52;1737896;82;25749;-60
2022/05/14 12:06:16;;;;;;;4.35;1.42;;;;;;;32.42;21.89;100990.16;1737349;82;27462;-60